• Join FlightAware (Why Join?)
  • Login
  • US Flag 
Gobble Gobble! 
06:03AM EST


 

Airport Tracker/Info


-or-


 

Live Flight TrackerFlight Track Log ✈ AAY655 ✈ 28-Mar-2014 ✈ KIAG - KSFB

Flight Track Log - Related Links

Times and Time Zones

All times are in EDT time to prevent confusion due to time zone crossing. See the AAY655 flight status page for this flight to view local times or setup timezone preferences in your user account.

Time Position Orientation Groundspeed Altitude Reporting Facility
EDT Latitude Longitude Course Direction KTS MPH feet Rate Location/Type
07:34PM 43.1167 -78.9667 236° Southwest 165 190 1,400  Level Buffalo TRACON
07:35PM 43.1000 -79.0000 236° Southwest 164 189 2,800 1,860 Climbing Buffalo TRACON
07:35PM 43.0694 -79.0106 194° South 189 217 3,400 1,980 Climbing Cleveland Center
07:36PM 42.9925 -79.0192 185° South 263 303 6,000 2,460 Climbing Cleveland Center
07:37PM 42.9106 -79.0308 186° South 280 322 8,500 2,100 Climbing Cleveland Center
07:38PM 42.8397 -79.0706 202° Southwest 284 327 10,400 1,380 Climbing Cleveland Center
07:39PM 42.7558 -79.1178 202° Southwest 328 377 11,400 1,200 Climbing Cleveland Center
07:40PM 42.6586 -79.1753 204° Southwest 382 440 13,000 1,800 Climbing Cleveland Center
07:41PM 42.5589 -79.2328 203° Southwest 389 448 15,100 2,340 Climbing Cleveland Center
07:42PM 42.4361 -79.3042 203° Southwest 401 461 17,900 2,220 Climbing Cleveland Center
07:43PM 42.3431 -79.3594 204° Southwest 404 465 19,800 1,500 Climbing Cleveland Center
07:45PM 42.2381 -79.4197 203° Southwest 409 471 21,100 1,620 Climbing Cleveland Center
07:46PM 42.1053 -79.4961 203° Southwest 434 499 23,200 2,220 Climbing Cleveland Center
07:47PM 41.9997 -79.5561 203° Southwest 415 478 25,800 2,160 Climbing Cleveland Center
07:48PM 41.8992 -79.6136 203° Southwest 401 461 27,700 1,800 Climbing Cleveland Center
07:49PM 41.8036 -79.6667 202° Southwest 392 451 29,500 1,560 Climbing Cleveland Center
07:50PM 41.6925 -79.7308 203° Southwest 376 433 30,900 1,140 Climbing Cleveland Center
07:51PM 41.5961 -79.7853 203° Southwest 370 426 31,900 480 Climbing Cleveland Center
07:52PM 41.5044 -79.8378 203° Southwest 368 423 32,000  Climbing Cleveland Center
07:53PM 41.4114 -79.8889 202° Southwest 365 420 32,000  Level Cleveland Center
07:54PM 41.3186 -79.9408 203° Southwest 364 419 32,000  Level Cleveland Center
07:55PM 41.2236 -79.9928 202° Southwest 363 418 32,000  Level Cleveland Center
07:56PM 41.1308 -80.0450 203° Southwest 363 418 32,000  Level Cleveland Center
07:57PM 41.0175 -80.1064 202° Southwest 364 419 32,000  Level Cleveland Center
07:58PM 40.9239 -80.1583 203° Southwest 364 419 32,000  Level Cleveland Center
07:59PM 40.8347 -80.2072 203° Southwest 364 419 32,000  Level Cleveland Center
08:00PM 40.7333 -80.2403 194° South 373 429 32,000  Level Cleveland Center
08:01PM 40.6108 -80.2783 193° South 375 432 32,000  Level Cleveland Center
08:02PM 40.5089 -80.3106 194° South 378 435 32,000  Level Cleveland Center
08:03PM 40.4058 -80.3422 193° South 379 436 32,000  Level Cleveland Center
08:04PM 40.3022 -80.3747 193° South 379 436 32,000  Level Cleveland Center
08:05PM 40.2006 -80.4072 194° South 379 436 32,000  Level Cleveland Center
08:06PM 40.0986 -80.4372 193° South 380 437 32,000  Level Cleveland Center
08:07PM 39.9739 -80.4758 193° South 382 440 32,000  Level Cleveland Center
08:08PM 39.8717 -80.5072 193° South 381 438 32,000  Level Cleveland Center
08:09PM 39.7686 -80.5372 193° South 381 438 32,000  Level Cleveland Center
08:10PM 39.6647 -80.5675 193° South 381 438 32,000  Level Cleveland Center
08:11PM 39.5761 -80.5950 193° South 386 444 32,000  Level Indianapolis Center
08:12PM 39.4717 -80.6267 193° South 386 444 32,000  Level Indianapolis Center
08:13PM 39.3658 -80.6569 192° South 386 444 32,000  Level Indianapolis Center
08:14PM 39.2608 -80.6872 193° South 386 444 32,000  Level Indianapolis Center
08:15PM 39.1553 -80.7178 193° South 386 444 32,000  Level Indianapolis Center
08:16PM 39.0514 -80.7483 193° South 386 444 32,000  Level Indianapolis Center
08:17PM 38.9442 -80.7731 190° South 386 444 32,000  Level Indianapolis Center
08:18PM 38.8325 -80.7772 182° South 393 452 32,000  Level Indianapolis Center
08:19PM 38.7197 -80.7839 183° South 400 460 32,000  Level Indianapolis Center
08:20PM 38.5839 -80.7925 183° South 400 460 32,000  Level Indianapolis Center
08:21PM 38.4708 -80.7997 183° South 401 461 32,000  Level Indianapolis Center
08:22PM 38.3575 -80.8069 183° South 401 461 32,000  Level Indianapolis Center
08:23PM 38.2442 -80.8136 183° South 401 461 32,000  Level Indianapolis Center
08:24PM 38.1308 -80.8192 182° South 402 463 32,000  Level Indianapolis Center
08:25PM 38.0169 -80.8267 183° South 403 464 32,000  Level Indianapolis Center
08:26PM 37.9039 -80.8319 182° South 403 464 32,000  Level Indianapolis Center
08:27PM 37.7864 -80.8389 183° South 403 464 32,000  Level Indianapolis Center
08:28PM 37.6767 -80.8458 183° South 403 464 32,000  Level Indianapolis Center
08:30PM 37.5458 -80.8525 182° South 403 464 32,000  Level Indianapolis Center
08:31PM 37.4372 -80.8589 183° South 403 464 32,000  Level Indianapolis Center
08:32PM 37.3275 -80.8647 182° South 403 464 32,000  Level Indianapolis Center
08:33PM 37.2194 -80.8708 183° South 403 464 32,000  Level Indianapolis Center
08:34PM 37.0875 -80.8778 182° South 403 464 32,000  Level Indianapolis Center
08:35PM 36.9458 -80.8858 183° South 402 463 32,000  Level Atlanta Center
08:36PM 36.8439 -80.8925 183° South 402 463 32,000  Level Atlanta Center
08:37PM 36.7353 -80.8942 181° South 402 463 32,000  Level Atlanta Center
08:38PM 36.6189 -80.9014 183° South 402 463 32,000  Level Atlanta Center
08:39PM 36.5042 -80.9083 183° South 402 463 32,000  Level Atlanta Center
08:40PM 36.3897 -80.9156 183° South 408 470 32,000  Level Atlanta Center
08:41PM 36.2689 -80.9228 183° South 420 483 32,000  Level Atlanta Center
08:42PM 36.1503 -80.9300 183° South 426 490 32,000  Level Atlanta Center
08:43PM 36.0336 -80.9344 182° South 426 490 32,000  Level Atlanta Center
08:44PM 35.9150 -80.9414 183° South 426 490 32,000  Level Atlanta Center
08:45PM 35.8003 -80.9483 183° South 421 484 32,000  Level Atlanta Center
08:46PM 35.6817 -80.9556 183° South 421 484 32,000  Level Atlanta Center
08:47PM 35.5669 -80.9597 182° South 421 484 32,000  Level Atlanta Center
08:48PM 35.4522 -80.9614 181° South 421 484 32,000  Level Atlanta Center
08:49PM 35.3272 -80.9661 182° South 421 484 32,000  Level Atlanta Center
08:50PM 35.2125 -80.9706 182° South 416 479 32,000  Level Atlanta Center
08:52PM 34.9631 -80.9775 181° South 418 481 32,000  Level Jacksonville Center
08:53PM 34.8483 -80.9803 181° South 418 481 32,000  Level Jacksonville Center
08:54PM 34.7336 -80.9803 180° South 423 487 32,000  Level Jacksonville Center
08:55PM 34.6231 -80.9828 181° South 417 480 32,000  Level Jacksonville Center
08:56PM 34.5064 -80.9878 182° South 417 480 32,000  Level Jacksonville Center
08:57PM 34.3897 -80.9928 182° South 417 480 32,000 -60 Level Jacksonville Center
08:58PM 34.2750 -80.9953 181° South 417 480 31,900 -60 Descending Jacksonville Center
08:59PM 34.1603 -80.9953 180° South 417 480 31,900  Level Jacksonville Center
09:00PM 34.0456 -80.9978 181° South 422 486 31,900  Level Jacksonville Center
09:01PM 33.9286 -81.0028 182° South 422 486 31,900  Level Jacksonville Center
09:02PM 33.8139 -81.0053 181° South 422 486 31,900  Level Jacksonville Center
09:03PM 33.6992 -81.0078 181° South 422 486 31,900  Level Jacksonville Center
09:04PM 33.5825 -81.0128 182° South 422 486 31,900  Level Jacksonville Center
09:05PM 33.4656 -81.0153 181° South 422 486 31,900  Level Jacksonville Center
09:06PM 33.3489 -81.0178 181° South 422 486 31,900  Level Jacksonville Center
09:07PM 33.2342 -81.0225 182° South 422 486 31,900  Level Jacksonville Center
09:08PM 33.1025 -81.0228 180° South 422 486 31,900  Level Jacksonville Center
09:09PM 32.9858 -81.0253 181° South 422 486 31,900  Level Jacksonville Center
09:10PM 32.8689 -81.0303 182° South 422 486 31,900  Level Jacksonville Center
09:11PM 32.7500 -81.0328 181° South 422 486 31,900  Level Jacksonville Center
09:12PM 32.6331 -81.0350 181° South 422 486 31,900  Level Jacksonville Center
09:13PM 32.5161 -81.0400 182° South 422 486 31,900  Level Jacksonville Center
09:14PM 32.4119 -81.0419 181° South 421 484 32,000  Climbing Jacksonville Center
09:15PM 32.2825 -81.0447 181° South 431 496 32,000  Level Jacksonville Center
09:16PM 32.1761 -81.0444 180° South 431 496 32,000  Level Jacksonville Center
09:17PM 32.0425 -81.0469 181° South 437 503 32,000  Level Jacksonville Center
09:18PM 31.9236 -81.0519 182° South 437 503 32,000  Level Jacksonville Center
09:19PM 31.8172 -81.0564 182° South 437 503 32,000  Level Jacksonville Center
09:20PM 31.6856 -81.0592 181° South 437 503 32,000  Level Jacksonville Center
09:21PM 31.5644 -81.0614 181° South 437 503 32,000  Level Jacksonville Center
09:22PM 31.4539 -81.0636 181° South 437 503 32,000 -60 Level Jacksonville Center
09:23PM 31.3203 -81.0686 182° South 439 505 31,900 -600 Descending Jacksonville Center
09:24PM 31.1972 -81.0736 182° South 439 505 30,900 -1,020 Descending Jacksonville Center
09:25PM 31.0719 -81.0758 181° South 448 516 29,900 -1,020 Descending Jacksonville Center
09:26PM 30.9508 -81.0783 181° South 448 516 28,900 -1,020 Descending Jacksonville Center
09:27PM 30.8278 -81.0806 181° South 437 503 27,900 -1,020 Descending Jacksonville Center
09:28PM 30.7131 -81.0853 182° South 432 497 26,900 -1,020 Descending Jacksonville Center
09:29PM 30.6025 -81.0872 181° South 417 480 25,900 -1,020 Descending Jacksonville Center
09:30PM 30.4939 -81.0894 181° South 407 468 24,900 -1,020 Descending Jacksonville Center
09:31PM 30.3833 -81.0914 181° South 397 457 23,900 -540 Descending Jacksonville Center
09:32PM 30.2789 -81.0933 181° South 392 451 23,900 -600 Level Jacksonville Center
09:33PM 30.1725 -81.0953 181° South 392 451 22,700 -1,380 Descending Jacksonville Center
09:34PM 30.0639 -81.0997 182° South 386 444 21,200 -1,740 Descending Jacksonville Center
09:35PM 29.9594 -81.1017 181° South 386 444 19,300 -1,980 Descending Jacksonville Center
09:36PM 29.9033 -81.1053 183° South 380 437 18,200 -1,920 Descending Jacksonville Center
09:36PM 29.8531 -81.1036 178° South 386 444 17,400 -1,740 Descending Jacksonville Center
09:36PM 29.8219 -81.1067 185° South 385 443 17,000 -2,040 Descending Jacksonville Center
09:37PM 29.7489 -81.1081 181° South 386 444 15,400 -1,980 Descending Jacksonville Center
09:37PM 29.7111 -81.1064 178° South 371 427 14,800 -2,040 Descending Jacksonville Center
09:38PM 29.6486 -81.1097 183° South 370 426 13,400 -1,800 Descending Jacksonville Center
09:38PM 29.6131 -81.1106 181° South 343 395 13,000 -1,200 Descending Jacksonville Center
09:39PM 29.5569 -81.1139 183° South 353 406 12,200 -1,140 Descending Jacksonville Center
09:39PM 29.5233 -81.1122 178° South 317 365 11,900 -1,020 Descending Jacksonville Center
09:40PM 29.4733 -81.1083 176° South 331 381 11,200 -1,140 Descending Jacksonville Center
09:40PM 29.4336 -81.1161 190° South 299 344 10,800 -1,140 Descending Jacksonville Center
09:41PM 29.3900 -81.1242 189° South 315 362 10,100 -1,200 Descending Jacksonville Center
09:42PM 29.3589 -81.1317 192° South 263 303 9,600 -1,620 Descending Jacksonville Center
09:42PM 29.3192 -81.1325 181° South 289 333 8,500 -1,680 Descending Jacksonville Center
09:43PM 29.2839 -81.1403 191° South 263 303 7,900 -1,620 Descending Jacksonville Center
09:43PM 29.2442 -81.1458 187° South 278 320 6,900 -1,380 Descending Jacksonville Center
09:44PM 29.1692 -81.1542 186° South 273 314 5,800 -1,020 Descending Jacksonville Center
09:45PM 29.0983 -81.1625 186° South 273 314 4,900 -300 Descending Jacksonville Center
09:47PM 28.9667 -81.1833 188° South 256 295 5,000 -300 Climbing Orlando TRACON
09:48PM 28.9000 -81.2167 204° Southwest 243 280 4,200 -1,140 Descending Orlando TRACON
09:49PM 28.8833 -81.2833 254° West 232 267 2,700 -1,260 Descending Orlando TRACON
09:50PM 28.8333 -81.3333 221° Southwest 183 211 1,600 -540 Descending Orlando TRACON
09:51PM 28.8000 -81.3333 180° South 141 162 1,600 -420 Level Orlando TRACON
09:52PM 28.7833 -81.3000 120° Southeast 129 148 900 -780 Descending Orlando TRACON
09:54PM 28.7667 -81.2333 199° South  Level FlightAware Approximate